George Burrows — WAR2530 — position and weather

sailwx.info

Track history (hours):
 
Tides and Currents Weather Stations Pressure Air Temp Water Temp Dewpoint Dewpoint Depression Visibility Wind Speed Wind Dir Waves Ship Positions

George Burrows

Owner: SPEARIN PRESTON & BURROWS INC, NEW YORK, NY. More information available from US FCC via Universal Licensing System and Coast Guard Vessel Documentation Center.

Last reported at 2018-Aug-13 20:23 UTC. Time now 2018-Aug-14 06:59 UTC.
Position N 36°44' W 076°15'.

Length 20 m; draft 3 m.

Type: Tug. MMSI: 338031889.

Date/timePositionNaut miles runAvg speedWind from/ knotsBaromVisibWave heightAir tempDewpointWater temp
2018-Aug-13 20:23N 36°44' W 076°15'0 0.0
2018-Aug-13 19:58N 36°44' W 076°15'0 0.0
2018-Aug-13 19:28N 36°44' W 076°15'0 0.0
2018-Aug-13 18:58N 36°44' W 076°15'0 0.0
2018-Aug-13 17:08N 36°44' W 076°15'0 0.0
2018-Aug-13 16:56N 36°44' W 076°15'0 0.0
2018-Aug-13 16:30N 36°44' W 076°15'0 0.0
2018-Aug-13 16:00N 36°44' W 076°15'0 0.0
2018-Aug-13 15:11N 36°44' W 076°15'0 0.0
2018-Aug-13 14:58N 36°44' W 076°15'0 0.0
2018-Aug-13 14:28N 36°44' W 076°15'0 0.0
2018-Aug-13 13:56N 36°44' W 076°15'0 0.0
2018-Aug-13 13:28N 36°44' W 076°15'0 0.0
2018-Aug-13 13:00N 36°44' W 076°15'0 0.0
2018-Aug-13 12:30N 36°44' W 076°15'  
2018-Aug-10 19:04N 36°44' W 076°15'0 0.0
2018-Aug-10 19:00N 36°44' W 076°15'0 0.0
2018-Aug-10 18:30N 36°44' W 076°15'0 0.0
2018-Aug-10 18:00N 36°44' W 076°15'0 0.0
2018-Aug-10 17:30N 36°44' W 076°15'0 0.0
2018-Aug-10 17:00N 36°44' W 076°15'0 0.0
2018-Aug-10 16:30N 36°44' W 076°15'0 0.0
2018-Aug-10 15:56N 36°44' W 076°15'0 0.0
2018-Aug-10 15:30N 36°44' W 076°15'0 0.0
2018-Aug-10 15:00N 36°44' W 076°15'0 0.0
2018-Aug-10 14:30N 36°44' W 076°15'0 0.0
2018-Aug-10 13:29N 36°44' W 076°15'0 0.0
2018-Aug-08 15:17N 36°44' W 076°15'0 0.4
2018-Aug-08 15:00N 36°44' W 076°15'2 3.4
2018-Aug-08 14:25N 36°44' W 076°17'2 5.1
2018-Aug-08 14:00N 36°46' W 076°18'2 4.4
2018-Aug-08 13:30N 36°48' W 076°17'3 5.9
2018-Aug-08 13:00N 36°51' W 076°18'4 1.4
2018-Aug-08 10:31N 36°54' W 076°20'1 8.5
2018-Aug-08 10:26N 36°54' W 076°20'3 7.8
2018-Aug-08 10:00N 36°51' W 076°18'4 7.4
2018-Aug-08 09:30N 36°47' W 076°18'3 6.4
2018-Aug-08 08:59N 36°44' W 076°17'2 4.2
2018-Aug-08 08:30N 36°44' W 076°15'0 0.0
2018-Aug-08 07:59N 36°44' W 076°15'0 0.0
2018-Aug-08 07:30N 36°44' W 076°15'0 0.0
2018-Aug-08 07:00N 36°44' W 076°15'0 0.0
2018-Aug-08 06:29N 36°44' W 076°15'0 0.0
2018-Aug-08 06:00N 36°44' W 076°15'0 0.0
2018-Aug-08 05:30N 36°44' W 076°15'0 0.0
2018-Aug-08 04:59N 36°44' W 076°15'0 0.0
2018-Aug-08 04:30N 36°44' W 076°15'0 0.0
2018-Aug-08 03:58N 36°44' W 076°15'0 0.0
2018-Aug-08 03:29N 36°44' W 076°15'0 0.0
2018-Aug-08 03:00N 36°44' W 076°15'0 0.0
2018-Aug-08 02:28N 36°44' W 076°15'0 0.0
2018-Aug-07 20:21N 36°44' W 076°15'0 0.0
2018-Aug-07 20:00N 36°44' W 076°15'0 0.0
2018-Aug-07 19:30N 36°44' W 076°15'0 0.0
2018-Aug-07 19:00N 36°44' W 076°15'0 0.0
2018-Aug-07 18:29N 36°44' W 076°15'0 0.0
2018-Aug-07 18:00N 36°44' W 076°15'0 0.0
2018-Aug-07 17:30N 36°44' W 076°15'0 0.0
2018-Aug-07 16:59N 36°44' W 076°15'0 0.0
2018-Aug-07 16:26N 36°44' W 076°15'0 0.0
2018-Aug-07 15:54N 36°44' W 076°15'0 0.0
2018-Aug-07 15:30N 36°44' W 076°15'0 0.0
2018-Aug-07 14:59N 36°44' W 076°15'0 0.0
2018-Aug-07 14:26N 36°44' W 076°15'0 0.0
2018-Aug-07 13:58N 36°44' W 076°15'0 0.0
2018-Aug-07 13:30N 36°44' W 076°15'0 0.0
2018-Aug-07 12:59N 36°44' W 076°15'0 0.0
2018-Aug-07 12:27N 36°44' W 076°15'0 0.0
2018-Aug-06 20:24N 36°44' W 076°15'0 0.0
2018-Aug-06 20:00N 36°44' W 076°15'0 0.0
2018-Aug-06 19:30N 36°44' W 076°15'0 0.0
2018-Aug-06 19:00N 36°44' W 076°15'0 0.0
2018-Aug-06 18:30N 36°44' W 076°15'0 0.0
2018-Aug-06 18:00N 36°44' W 076°15'0 0.0
2018-Aug-06 17:30N 36°44' W 076°15'0 0.0
2018-Aug-06 17:00N 36°44' W 076°15'0 0.0
2018-Aug-06 16:30N 36°44' W 076°15'0 0.0
2018-Aug-06 16:00N 36°44' W 076°15'0 0.0
2018-Aug-06 15:30N 36°44' W 076°15'0 0.0
2018-Aug-06 14:59N 36°44' W 076°15'0 0.0
2018-Aug-06 14:24N 36°44' W 076°15'0 0.0
2018-Aug-06 13:58N 36°44' W 076°15'0 0.0
2018-Aug-06 13:30N 36°44' W 076°15'0 0.0
2018-Aug-06 13:00N 36°44' W 076°15'0 0.0
2018-Aug-06 12:30N 36°44' W 076°15'  
2018-Aug-03 20:25N 36°44' W 076°15'  
Track history (hours):
 
Tides and Currents Weather Stations Pressure Air Temp Water Temp Dewpoint Dewpoint Depression Visibility Wind Speed Wind Dir Waves Ship Positions

George Burrows

Owner: SPEARIN PRESTON & BURROWS INC, NEW YORK, NY. More information available from US FCC via Universal Licensing System and Coast Guard Vessel Documentation Center.

Last reported at 2018-Aug-13 20:23 UTC. Time now 2018-Aug-14 06:59 UTC.
Position N 36°44' W 076°15'.

Length 20 m; draft 3 m.

Type: Tug. MMSI: 338031889.

Date/timePositionNaut miles runAvg speedWind from/ knotsBaromVisibWave heightAir tempDewpointWater temp
2018-Aug-13 20:23N 36°44' W 076°15'0 0.0
2018-Aug-13 19:58N 36°44' W 076°15'0 0.0
2018-Aug-13 19:28N 36°44' W 076°15'0 0.0
2018-Aug-13 18:58N 36°44' W 076°15'0 0.0
2018-Aug-13 17:08N 36°44' W 076°15'0 0.0
2018-Aug-13 16:56N 36°44' W 076°15'0 0.0
2018-Aug-13 16:30N 36°44' W 076°15'0 0.0
2018-Aug-13 16:00N 36°44' W 076°15'0 0.0
2018-Aug-13 15:11N 36°44' W 076°15'0 0.0
2018-Aug-13 14:58N 36°44' W 076°15'0 0.0
2018-Aug-13 14:28N 36°44' W 076°15'0 0.0
2018-Aug-13 13:56N 36°44' W 076°15'0 0.0
2018-Aug-13 13:28N 36°44' W 076°15'0 0.0
2018-Aug-13 13:00N 36°44' W 076°15'0 0.0
2018-Aug-13 12:30N 36°44' W 076°15'  
2018-Aug-10 19:04N 36°44' W 076°15'0 0.0
2018-Aug-10 19:00N 36°44' W 076°15'0 0.0
2018-Aug-10 18:30N 36°44' W 076°15'0 0.0
2018-Aug-10 18:00N 36°44' W 076°15'0 0.0
2018-Aug-10 17:30N 36°44' W 076°15'0 0.0
2018-Aug-10 17:00N 36°44' W 076°15'0 0.0
2018-Aug-10 16:30N 36°44' W 076°15'0 0.0
2018-Aug-10 15:56N 36°44' W 076°15'0 0.0
2018-Aug-10 15:30N 36°44' W 076°15'0 0.0
2018-Aug-10 15:00N 36°44' W 076°15'0 0.0
2018-Aug-10 14:30N 36°44' W 076°15'0 0.0
2018-Aug-10 13:29N 36°44' W 076°15'0 0.0
2018-Aug-08 15:17N 36°44' W 076°15'0 0.4
2018-Aug-08 15:00N 36°44' W 076°15'2 3.4
2018-Aug-08 14:25N 36°44' W 076°17'2 5.1
2018-Aug-08 14:00N 36°46' W 076°18'2 4.4
2018-Aug-08 13:30N 36°48' W 076°17'3 5.9
2018-Aug-08 13:00N 36°51' W 076°18'4 1.4
2018-Aug-08 10:31N 36°54' W 076°20'1 8.5
2018-Aug-08 10:26N 36°54' W 076°20'3 7.8
2018-Aug-08 10:00N 36°51' W 076°18'4 7.4
2018-Aug-08 09:30N 36°47' W 076°18'3 6.4
2018-Aug-08 08:59N 36°44' W 076°17'2 4.2
2018-Aug-08 08:30N 36°44' W 076°15'0 0.0
2018-Aug-08 07:59N 36°44' W 076°15'0 0.0
2018-Aug-08 07:30N 36°44' W 076°15'0 0.0
2018-Aug-08 07:00N 36°44' W 076°15'0 0.0
2018-Aug-08 06:29N 36°44' W 076°15'0 0.0
2018-Aug-08 06:00N 36°44' W 076°15'0 0.0
2018-Aug-08 05:30N 36°44' W 076°15'0 0.0
2018-Aug-08 04:59N 36°44' W 076°15'0 0.0
2018-Aug-08 04:30N 36°44' W 076°15'0 0.0
2018-Aug-08 03:58N 36°44' W 076°15'0 0.0
2018-Aug-08 03:29N 36°44' W 076°15'0 0.0
2018-Aug-08 03:00N 36°44' W 076°15'0 0.0
2018-Aug-08 02:28N 36°44' W 076°15'0 0.0
2018-Aug-07 20:21N 36°44' W 076°15'0 0.0
2018-Aug-07 20:00N 36°44' W 076°15'0 0.0
2018-Aug-07 19:30N 36°44' W 076°15'0 0.0
2018-Aug-07 19:00N 36°44' W 076°15'0 0.0
2018-Aug-07 18:29N 36°44' W 076°15'0 0.0
2018-Aug-07 18:00N 36°44' W 076°15'0 0.0
2018-Aug-07 17:30N 36°44' W 076°15'0 0.0
2018-Aug-07 16:59N 36°44' W 076°15'0 0.0
2018-Aug-07 16:26N 36°44' W 076°15'0 0.0
2018-Aug-07 15:54N 36°44' W 076°15'0 0.0
2018-Aug-07 15:30N 36°44' W 076°15'0 0.0
2018-Aug-07 14:59N 36°44' W 076°15'0 0.0
2018-Aug-07 14:26N 36°44' W 076°15'0 0.0
2018-Aug-07 13:58N 36°44' W 076°15'0 0.0
2018-Aug-07 13:30N 36°44' W 076°15'0 0.0
2018-Aug-07 12:59N 36°44' W 076°15'0 0.0
2018-Aug-07 12:27N 36°44' W 076°15'0 0.0
2018-Aug-06 20:24N 36°44' W 076°15'0 0.0
2018-Aug-06 20:00N 36°44' W 076°15'0 0.0
2018-Aug-06 19:30N 36°44' W 076°15'0 0.0
2018-Aug-06 19:00N 36°44' W 076°15'0 0.0
2018-Aug-06 18:30N 36°44' W 076°15'0 0.0
2018-Aug-06 18:00N 36°44' W 076°15'0 0.0
2018-Aug-06 17:30N 36°44' W 076°15'0 0.0
2018-Aug-06 17:00N 36°44' W 076°15'0 0.0
2018-Aug-06 16:30N 36°44' W 076°15'0 0.0
2018-Aug-06 16:00N 36°44' W 076°15'0 0.0
2018-Aug-06 15:30N 36°44' W 076°15'0 0.0
2018-Aug-06 14:59N 36°44' W 076°15'0 0.0
2018-Aug-06 14:24N 36°44' W 076°15'0 0.0
2018-Aug-06 13:58N 36°44' W 076°15'0 0.0
2018-Aug-06 13:30N 36°44' W 076°15'0 0.0
2018-Aug-06 13:00N 36°44' W 076°15'0 0.0
2018-Aug-06 12:30N 36°44' W 076°15'  
2018-Aug-03 20:25N 36°44' W 076°15'  

Dump ship's entire track history